createdAt,value
2022-08-14T00:00:21.872Z,22.71
2022-08-14T00:01:24.174Z,22.70
2022-08-14T00:02:21.916Z,22.68
2022-08-14T00:03:21.852Z,22.67
2022-08-14T00:04:34.521Z,22.64
2022-08-14T00:05:22.824Z,22.66
2022-08-14T00:06:28.511Z,22.66
2022-08-14T00:07:22.805Z,22.61
2022-08-14T00:08:44.479Z,22.58
2022-08-14T00:09:22.786Z,22.61
2022-08-14T00:10:51.424Z,22.61
2022-08-14T00:11:22.786Z,22.61
2022-08-14T00:12:23.410Z,22.61
2022-08-14T00:13:21.751Z,22.59
2022-08-14T00:14:21.736Z,22.58
2022-08-14T00:15:21.947Z,22.61
2022-08-14T00:16:41.784Z,22.61
2022-08-14T00:17:22.718Z,22.61
2022-08-14T00:18:30.939Z,22.61
2022-08-14T00:19:22.691Z,22.59
2022-08-14T00:20:24.056Z,22.58
2022-08-14T00:21:28.400Z,22.53
2022-08-14T00:22:56.141Z,22.44
2022-08-14T00:23:22.641Z,22.38
2022-08-14T00:24:28.635Z,22.38
2022-08-14T00:25:22.622Z,22.37
2022-08-14T00:26:23.188Z,22.38
2022-08-14T00:27:21.602Z,22.37
2022-08-14T00:28:21.594Z,22.36
2022-08-14T00:29:21.583Z,22.33
2022-08-14T00:30:21.565Z,22.34
2022-08-14T00:31:35.322Z,22.33
2022-08-14T00:32:55.643Z,22.34
2022-08-14T00:33:22.535Z,22.33
2022-08-14T00:34:36.651Z,22.31
2022-08-14T00:35:22.516Z,22.30
2022-08-14T00:36:35.223Z,22.28
2022-08-14T00:37:22.499Z,22.28
2022-08-14T00:38:21.478Z,22.27
2022-08-14T00:39:21.518Z,22.28
2022-08-14T00:40:33.642Z,22.30
2022-08-14T00:41:22.477Z,22.33
2022-08-14T00:42:55.417Z,22.31
2022-08-14T00:43:22.429Z,22.33
2022-08-14T00:44:32.039Z,22.34
2022-08-14T00:45:22.410Z,22.33
2022-08-14T00:46:32.902Z,22.33
2022-08-14T00:47:22.391Z,22.33
2022-08-14T00:48:34.007Z,22.30
2022-08-14T00:49:22.373Z,22.28
2022-08-14T00:50:22.044Z,22.27
2022-08-14T00:51:21.374Z,22.25
2022-08-14T00:52:21.343Z,22.25
2022-08-14T00:53:21.332Z,22.25
2022-08-14T00:54:21.921Z,22.22
2022-08-14T00:55:21.305Z,22.21
2022-08-14T00:56:21.315Z,22.23
2022-08-14T00:57:21.285Z,22.22
2022-08-14T00:58:27.931Z,22.15
2022-08-14T00:59:22.267Z,22.12
2022-08-14T01:00:37.172Z,22.03
2022-08-14T01:01:22.337Z,22.00
2022-08-14T01:02:21.226Z,21.97
2022-08-14T01:03:21.226Z,21.97
2022-08-14T01:04:37.308Z,21.98
2022-08-14T01:05:22.208Z,22.00
2022-08-14T01:06:21.215Z,21.98
2022-08-14T01:07:21.713Z,22.00
2022-08-14T01:08:52.450Z,21.98
2022-08-14T01:09:22.161Z,21.98
2022-08-14T01:10:21.141Z,21.97
2022-08-14T01:11:21.162Z,21.98
2022-08-14T01:12:27.389Z,22.00
2022-08-14T01:13:22.120Z,22.00
2022-08-14T01:14:28.276Z,22.01
2022-08-14T01:15:42.607Z,22.01
2022-08-14T01:16:22.472Z,22.01
2022-08-14T01:17:22.109Z,22.01
2022-08-14T01:18:21.063Z,21.98
2022-08-14T01:19:21.056Z,21.97
2022-08-14T01:20:27.865Z,21.97
2022-08-14T01:21:22.053Z,21.96
2022-08-14T01:22:21.026Z,21.96
2022-08-14T01:23:22.015Z,21.93
2022-08-14T01:24:24.777Z,21.93
2022-08-14T01:25:21.986Z,21.94
2022-08-14T01:26:23.494Z,21.91
2022-08-14T01:27:22.387Z,21.91
2022-08-14T01:28:46.064Z,21.85
2022-08-14T01:29:58.860Z,21.84
2022-08-14T01:30:21.938Z,21.85
2022-08-14T01:31:20.918Z,21.82
2022-08-14T01:32:23.325Z,21.81
2022-08-14T01:33:20.909Z,21.75
2022-08-14T01:35:17.299Z,21.73
2022-08-14T01:36:03.299Z,21.71
2022-08-14T01:36:23.241Z,21.73
2022-08-14T01:37:20.880Z,21.67
2022-08-14T01:38:20.852Z,21.67
2022-08-14T01:39:20.878Z,21.67
2022-08-14T01:40:20.832Z,21.67
2022-08-14T01:41:22.876Z,21.66
2022-08-14T01:42:32.141Z,21.65
2022-08-14T01:43:22.196Z,21.60
2022-08-14T01:44:33.393Z,21.58
2022-08-14T01:45:25.417Z,21.55
2022-08-14T01:46:24.510Z,21.53
2022-08-14T01:47:22.232Z,21.50
2022-08-14T01:48:21.066Z,21.48
2022-08-14T01:49:20.736Z,21.43
2022-08-14T01:50:20.725Z,21.38
2022-08-14T01:51:21.706Z,21.38
2022-08-14T01:52:34.584Z,21.38
2022-08-14T01:53:21.688Z,21.34
2022-08-14T01:54:20.679Z,21.34
2022-08-14T01:55:20.668Z,21.29
2022-08-14T01:56:20.658Z,21.28
2022-08-14T01:57:20.678Z,21.28
2022-08-14T01:58:28.901Z,21.29
2022-08-14T01:59:21.637Z,21.30
2022-08-14T02:00:20.623Z,21.30
2022-08-14T02:01:20.679Z,21.34
2022-08-14T02:02:21.620Z,21.35
2022-08-14T02:03:20.599Z,21.37
2022-08-14T02:04:54.731Z,21.38
2022-08-14T02:05:21.562Z,21.41
2022-08-14T02:06:32.367Z,21.38
2022-08-14T02:07:27.221Z,21.38
2022-08-14T02:08:22.533Z,21.38
2022-08-14T02:09:22.630Z,21.38
2022-08-14T02:10:26.311Z,21.37
2022-08-14T02:11:21.494Z,21.35
2022-08-14T02:12:26.460Z,21.35
2022-08-14T02:13:21.475Z,21.35
2022-08-14T02:14:31.563Z,21.32
2022-08-14T02:15:21.456Z,21.30
2022-08-14T02:16:22.272Z,21.28
2022-08-14T02:17:20.459Z,21.28
2022-08-14T02:18:20.447Z,21.26
2022-08-14T02:19:20.418Z,21.26
2022-08-14T02:20:23.463Z,21.22
2022-08-14T02:21:23.120Z,21.19
2022-08-14T02:22:29.028Z,21.16
2022-08-14T02:23:28.923Z,21.16
2022-08-14T02:24:40.341Z,21.11
2022-08-14T02:25:21.349Z,21.05
2022-08-14T02:26:24.758Z,21.07
2022-08-14T02:28:25.871Z,21.08
2022-08-14T02:28:56.542Z,21.10
2022-08-14T02:29:21.309Z,21.11
2022-08-14T02:30:20.305Z,21.11
2022-08-14T02:31:20.291Z,21.11
2022-08-14T02:32:30.417Z,21.14
2022-08-14T02:33:21.263Z,21.14
2022-08-14T02:34:26.140Z,21.16
2022-08-14T02:35:21.969Z,21.16
2022-08-14T02:37:05.157Z,21.14
2022-08-14T02:37:21.244Z,21.13
2022-08-14T02:38:30.424Z,21.13
2022-08-14T02:39:21.231Z,21.13
2022-08-14T02:40:20.215Z,21.13
2022-08-14T02:41:20.178Z,21.13
2022-08-14T02:42:23.485Z,21.11
2022-08-14T02:43:22.538Z,21.11
2022-08-14T02:44:29.517Z,21.08
2022-08-14T02:45:21.137Z,21.07
2022-08-14T02:46:27.181Z,21.05
2022-08-14T02:47:21.348Z,21.05
2022-08-14T02:49:04.410Z,21.04
2022-08-14T02:49:21.098Z,21.04
2022-08-14T02:50:20.091Z,21.03
2022-08-14T02:51:21.078Z,21.04
2022-08-14T02:52:56.220Z,21.03
2022-08-14T02:53:21.050Z,21.00
2022-08-14T02:54:20.051Z,20.97
2022-08-14T02:55:20.665Z,20.97
2022-08-14T02:56:30.021Z,20.98
2022-08-14T02:57:39.825Z,20.95
2022-08-14T02:58:29.176Z,20.95
2022-08-14T02:59:21.104Z,20.95
2022-08-14T03:00:19.984Z,20.92
2022-08-14T03:01:20.012Z,20.92
2022-08-14T03:02:48.930Z,20.93
2022-08-14T03:03:20.952Z,20.95
2022-08-14T03:04:20.523Z,20.97
2022-08-14T03:05:19.924Z,20.98
2022-08-14T03:06:20.589Z,20.95
2022-08-14T03:07:20.926Z,20.92
2022-08-14T03:08:19.907Z,20.93
2022-08-14T03:09:19.886Z,20.93
2022-08-14T03:10:28.209Z,20.93
2022-08-14T03:11:20.890Z,20.93
2022-08-14T03:12:30.699Z,20.90
2022-08-14T03:13:21.220Z,20.92
2022-08-14T03:14:19.838Z,20.93
2022-08-14T03:15:20.931Z,20.90
2022-08-14T03:16:26.705Z,20.90
2022-08-14T03:17:20.822Z,20.88
2022-08-14T03:18:19.791Z,20.86
2022-08-14T03:19:20.780Z,20.86
2022-08-14T03:20:19.770Z,20.80
2022-08-14T03:21:19.761Z,20.79
2022-08-14T03:22:19.791Z,20.79
2022-08-14T03:23:19.735Z,20.79
2022-08-14T03:24:22.876Z,20.77
2022-08-14T03:25:19.722Z,20.77
2022-08-14T03:26:29.622Z,20.74
2022-08-14T03:27:20.722Z,20.74
2022-08-14T03:28:33.296Z,20.73
2022-08-14T03:29:20.673Z,20.71
2022-08-14T03:30:23.287Z,20.71
2022-08-14T03:31:19.664Z,20.67
2022-08-14T03:32:19.666Z,20.67
2022-08-14T03:33:20.635Z,20.64
2022-08-14T03:34:24.369Z,20.63
2022-08-14T03:35:20.607Z,20.63
2022-08-14T03:37:37.422Z,20.67
2022-08-14T03:37:37.719Z,20.64
2022-08-14T03:39:11.640Z,20.68
2022-08-14T03:39:23.039Z,20.68
2022-08-14T03:40:19.623Z,20.73
2022-08-14T03:41:19.550Z,20.71
2022-08-14T03:42:19.793Z,20.65
2022-08-14T03:43:19.476Z,20.61
2022-08-14T03:45:26.762Z,20.56
2022-08-14T03:45:33.371Z,20.53
2022-08-14T03:46:52.663Z,20.50
2022-08-14T03:47:20.461Z,20.55
2022-08-14T03:48:30.657Z,20.58
2022-08-14T03:49:24.530Z,20.58
2022-08-14T03:50:30.766Z,20.60
2022-08-14T03:51:20.444Z,20.63
2022-08-14T03:52:38.272Z,20.63
2022-08-14T03:53:20.395Z,20.60
2022-08-14T03:54:20.562Z,20.56
2022-08-14T03:55:19.347Z,20.53
2022-08-14T03:56:21.382Z,20.49
2022-08-14T03:57:19.346Z,20.49
2022-08-14T03:58:34.985Z,20.46
2022-08-14T03:59:20.316Z,20.48
2022-08-14T04:00:40.185Z,20.49
2022-08-14T04:01:20.314Z,20.52
2022-08-14T04:02:32.785Z,20.52
2022-08-14T04:03:24.371Z,20.50
2022-08-14T04:04:19.257Z,20.50
2022-08-14T04:05:19.238Z,20.46
2022-08-14T04:06:21.146Z,20.44
2022-08-14T04:07:19.246Z,20.42
2022-08-14T04:08:29.410Z,20.42
2022-08-14T04:09:20.200Z,20.41
2022-08-14T04:10:26.263Z,20.41
2022-08-14T04:11:20.180Z,20.42
2022-08-14T04:12:26.526Z,20.42
2022-08-14T04:13:20.162Z,20.46
2022-08-14T04:14:19.151Z,20.46
2022-08-14T04:15:19.132Z,20.44
2022-08-14T04:16:19.123Z,20.41
2022-08-14T04:17:19.143Z,20.42
2022-08-14T04:18:19.128Z,20.44
2022-08-14T04:19:19.094Z,20.42
2022-08-14T04:20:25.610Z,20.42
2022-08-14T04:21:20.074Z,20.42
2022-08-14T04:22:19.094Z,20.41
2022-08-14T04:23:23.680Z,20.41
2022-08-14T04:24:20.037Z,20.41
2022-08-14T04:25:20.026Z,20.44
2022-08-14T04:26:27.243Z,20.44
2022-08-14T04:27:20.035Z,20.49
2022-08-14T04:29:01.541Z,20.50
2022-08-14T04:29:19.986Z,20.55
2022-08-14T04:30:25.024Z,20.55
2022-08-14T04:31:34.666Z,20.58
2022-08-14T04:33:10.254Z,20.60
2022-08-14T04:33:20.995Z,20.60
2022-08-14T04:34:24.161Z,20.61
2022-08-14T04:35:23.633Z,20.60
2022-08-14T04:36:18.922Z,20.60
2022-08-14T04:37:24.477Z,20.60
2022-08-14T04:38:36.496Z,20.58
2022-08-14T04:39:19.913Z,20.60
2022-08-14T04:40:18.872Z,20.60
2022-08-14T04:41:18.861Z,20.64
2022-08-14T04:42:18.855Z,20.67
2022-08-14T04:43:18.860Z,20.67
2022-08-14T04:44:35.794Z,20.64
2022-08-14T04:45:19.834Z,20.63
2022-08-14T04:46:56.378Z,20.65
2022-08-14T04:47:19.815Z,20.65
2022-08-14T04:48:38.982Z,20.68
2022-08-14T04:49:19.776Z,20.70
2022-08-14T04:50:22.069Z,20.73
2022-08-14T04:51:19.747Z,20.71
2022-08-14T04:52:23.414Z,20.73
2022-08-14T04:53:23.057Z,20.73
2022-08-14T04:54:19.738Z,20.73
2022-08-14T04:55:18.710Z,20.74
2022-08-14T04:56:30.863Z,20.74
2022-08-14T04:57:19.710Z,20.74
2022-08-14T04:58:21.194Z,20.71
2022-08-14T04:59:18.671Z,20.70
2022-08-14T05:00:18.670Z,20.67
2022-08-14T05:01:19.709Z,20.64
2022-08-14T05:02:18.837Z,20.64
2022-08-14T05:03:18.641Z,20.68
2022-08-14T05:04:20.288Z,20.70
2022-08-14T05:05:18.602Z,20.73
2022-08-14T05:06:38.016Z,20.71
2022-08-14T05:07:19.614Z,20.74
2022-08-14T05:08:32.403Z,20.73
2022-08-14T05:09:19.565Z,20.74
2022-08-14T05:10:21.944Z,20.75
2022-08-14T05:11:19.893Z,20.80
2022-08-14T05:13:13.309Z,20.80
2022-08-14T05:13:19.544Z,20.83
2022-08-14T05:14:45.535Z,20.88
2022-08-14T05:15:19.496Z,20.86
2022-08-14T05:16:18.499Z,20.86
2022-08-14T05:17:18.478Z,20.88
2022-08-14T05:19:17.193Z,20.90
2022-08-14T05:19:25.209Z,20.93
2022-08-14T05:21:55.359Z,20.97
2022-08-14T05:21:56.675Z,21.01
2022-08-14T05:22:19.467Z,21.04
2022-08-14T05:23:18.442Z,21.07
2022-08-14T05:24:18.939Z,21.10
2022-08-14T05:25:18.390Z,21.14
2022-08-14T05:26:18.390Z,21.18
2022-08-14T05:27:18.371Z,21.20
2022-08-14T05:28:18.391Z,21.23
2022-08-14T05:29:18.354Z,21.25
2022-08-14T05:30:18.360Z,21.28
2022-08-14T05:31:20.357Z,21.32
2022-08-14T05:32:18.323Z,21.34
2022-08-14T05:33:18.333Z,21.37
2022-08-14T05:34:18.303Z,21.41
2022-08-14T05:35:18.313Z,21.40
2022-08-14T05:36:18.285Z,21.43
2022-08-14T05:37:18.274Z,21.44
2022-08-14T05:38:30.842Z,21.45
2022-08-14T05:39:19.299Z,21.48
2022-08-14T05:40:18.689Z,21.51
2022-08-14T05:41:18.237Z,21.55
2022-08-14T05:42:26.640Z,21.58
2022-08-14T05:43:19.238Z,21.62
2022-08-14T05:44:18.198Z,21.63
2022-08-14T05:45:18.188Z,21.66
2022-08-14T05:46:18.177Z,21.69
2022-08-14T05:47:18.185Z,21.71
2022-08-14T05:48:32.915Z,21.73
2022-08-14T05:49:19.151Z,21.75
2022-08-14T05:50:19.170Z,21.78
2022-08-14T05:51:18.127Z,21.80
2022-08-14T05:52:18.346Z,21.82
2022-08-14T05:53:18.122Z,21.85
2022-08-14T05:54:26.799Z,21.90
2022-08-14T05:55:22.100Z,21.93
2022-08-14T05:56:18.063Z,21.96
2022-08-14T05:57:18.072Z,21.97
2022-08-14T05:58:18.075Z,22.00
2022-08-14T05:59:18.041Z,22.01
2022-08-14T06:00:28.988Z,22.03
2022-08-14T06:01:19.070Z,22.06
2022-08-14T06:02:18.004Z,22.07
2022-08-14T06:03:18.033Z,22.11
2022-08-14T06:04:17.984Z,22.11
2022-08-14T06:05:17.997Z,22.13
2022-08-14T06:06:18.960Z,22.16
2022-08-14T06:07:17.989Z,22.19
2022-08-14T06:08:21.691Z,22.23
2022-08-14T06:09:18.937Z,22.25
2022-08-14T06:10:18.903Z,22.30
2022-08-14T06:11:20.283Z,22.34
2022-08-14T06:12:55.768Z,22.37
2022-08-14T06:13:18.889Z,22.40
2022-08-14T06:14:21.569Z,22.44
2022-08-14T06:15:18.869Z,22.48
2022-08-14T06:16:18.733Z,22.52
2022-08-14T06:17:25.946Z,22.55
2022-08-14T06:18:18.834Z,22.58
2022-08-14T06:19:18.281Z,22.59
2022-08-14T06:20:17.813Z,22.62
2022-08-14T06:21:17.812Z,22.64
2022-08-14T06:22:17.813Z,22.68
2022-08-14T06:23:17.783Z,22.70
2022-08-14T06:24:18.863Z,22.74
2022-08-14T06:25:18.298Z,22.74
2022-08-14T06:26:20.780Z,22.73
2022-08-14T06:27:17.765Z,22.73
2022-08-14T06:28:26.920Z,22.73
2022-08-14T06:29:18.725Z,22.70
2022-08-14T06:30:17.726Z,22.68
2022-08-14T06:31:17.707Z,22.71
2022-08-14T06:32:38.519Z,22.73
2022-08-14T06:33:18.700Z,22.74
2022-08-14T06:35:02.441Z,22.78
2022-08-14T06:35:18.670Z,22.81
2022-08-14T06:36:18.383Z,22.86
2022-08-14T06:37:17.659Z,22.92
2022-08-14T06:38:17.737Z,22.95
2022-08-14T06:39:17.619Z,22.96
2022-08-14T06:40:27.925Z,22.96
2022-08-14T06:41:20.854Z,22.99
2022-08-14T06:42:32.527Z,23.01
2022-08-14T06:43:18.581Z,23.03
2022-08-14T06:44:17.571Z,23.04
2022-08-14T06:45:17.563Z,23.08
2022-08-14T06:46:32.310Z,23.11
2022-08-14T06:47:18.563Z,23.15
2022-08-14T06:48:18.522Z,23.22
2022-08-14T06:49:17.516Z,23.26
2022-08-14T06:50:17.502Z,23.31
2022-08-14T06:51:17.494Z,23.37
2022-08-14T06:52:17.475Z,23.42
2022-08-14T06:53:17.498Z,23.48
2022-08-14T06:54:17.464Z,23.52
2022-08-14T06:55:17.455Z,23.52
2022-08-14T06:56:17.446Z,23.51
2022-08-14T06:57:17.428Z,23.51
2022-08-14T06:58:28.749Z,23.51
2022-08-14T06:59:19.976Z,23.51
2022-08-14T07:00:26.806Z,23.48
2022-08-14T07:01:24.961Z,23.42
2022-08-14T07:02:19.196Z,23.42
2022-08-14T07:03:17.572Z,23.45
2022-08-14T07:04:22.626Z,23.48
2022-08-14T07:05:22.955Z,23.52
2022-08-14T07:06:21.414Z,23.56
2022-08-14T07:07:18.323Z,23.63
2022-08-14T07:08:17.332Z,23.67
2022-08-14T07:09:23.087Z,23.71
2022-08-14T07:10:18.285Z,23.79
2022-08-14T07:11:17.294Z,23.84
2022-08-14T07:12:55.015Z,23.89
2022-08-14T07:13:18.284Z,23.97
2022-08-14T07:14:17.259Z,24.03
2022-08-14T07:15:17.235Z,24.06
2022-08-14T07:16:17.235Z,24.11
2022-08-14T07:17:17.216Z,24.15
2022-08-14T07:18:17.226Z,24.21
2022-08-14T07:19:17.237Z,24.26
2022-08-14T07:20:18.745Z,24.28
2022-08-14T07:21:17.178Z,24.33
2022-08-14T07:22:17.590Z,24.37
2022-08-14T07:23:19.928Z,24.41
2022-08-14T07:24:21.776Z,24.47
2022-08-14T07:25:18.130Z,24.52
2022-08-14T07:26:17.121Z,24.56
2022-08-14T07:27:17.120Z,24.59
2022-08-14T07:28:21.110Z,24.62
2022-08-14T07:29:17.687Z,24.65
2022-08-14T07:30:41.780Z,24.68
2022-08-14T07:31:18.073Z,24.75
2022-08-14T07:32:22.186Z,24.81
2022-08-14T07:33:18.073Z,24.85
2022-08-14T07:34:36.197Z,24.90
2022-08-14T07:35:18.025Z,24.94
2022-08-14T07:36:29.913Z,24.99
2022-08-14T07:37:18.010Z,25.03
2022-08-14T07:38:17.015Z,25.08
2022-08-14T07:39:17.032Z,25.14
2022-08-14T07:40:22.156Z,25.16
2022-08-14T07:41:17.967Z,25.19
2022-08-14T07:42:16.955Z,25.23
2022-08-14T07:43:17.968Z,25.27
2022-08-14T07:44:29.771Z,25.33
2022-08-14T07:45:17.928Z,25.36
2022-08-14T07:46:21.365Z,25.40
2022-08-14T07:47:17.908Z,25.48
2022-08-14T07:48:16.929Z,25.52
2022-08-14T07:49:17.901Z,25.55
2022-08-14T07:50:20.101Z,25.59
2022-08-14T07:51:16.862Z,25.61
2022-08-14T07:52:21.939Z,25.63
2022-08-14T07:53:17.870Z,25.61
2022-08-14T07:54:23.208Z,25.64
2022-08-14T07:55:21.002Z,25.66
2022-08-14T07:56:44.409Z,25.70
2022-08-14T07:57:24.917Z,25.71
2022-08-14T07:58:34.022Z,25.75
2022-08-14T07:59:17.783Z,25.81
2022-08-14T08:00:30.829Z,25.85
2022-08-14T08:01:17.755Z,25.90
2022-08-14T08:02:18.069Z,25.98
2022-08-14T08:03:16.796Z,26.04
2022-08-14T08:04:23.977Z,26.12
2022-08-14T08:05:17.717Z,26.21
2022-08-14T08:06:17.620Z,26.28
2022-08-14T08:07:16.733Z,26.34
2022-08-14T08:08:27.345Z,26.41
2022-08-14T08:09:17.672Z,26.49
2022-08-14T08:10:16.660Z,26.53
2022-08-14T08:11:17.651Z,26.58
2022-08-14T08:12:16.651Z,26.61
2022-08-14T08:13:16.668Z,26.65
2022-08-14T08:14:18.070Z,26.75
2022-08-14T08:15:16.612Z,26.88
2022-08-14T08:16:16.602Z,26.94
2022-08-14T08:17:16.604Z,27.03
2022-08-14T08:18:20.382Z,27.12
2022-08-14T08:19:17.574Z,27.23
2022-08-14T08:20:19.832Z,27.25
2022-08-14T08:21:18.004Z,27.34
2022-08-14T08:22:16.537Z,27.45
2022-08-14T08:23:20.587Z,27.60
2022-08-14T08:24:19.949Z,27.75
2022-08-14T08:25:17.780Z,27.91
2022-08-14T08:26:16.497Z,28.07
2022-08-14T08:27:16.755Z,28.20
2022-08-14T08:28:19.696Z,28.34
2022-08-14T08:29:17.469Z,28.49
2022-08-14T08:30:16.457Z,28.69
2022-08-14T08:31:16.449Z,28.81
2022-08-14T08:32:16.441Z,28.93
2022-08-14T08:33:16.451Z,29.07
2022-08-14T08:34:18.357Z,29.17
2022-08-14T08:35:16.410Z,29.29
2022-08-14T08:36:18.780Z,29.40
2022-08-14T08:37:16.382Z,29.50
2022-08-14T08:39:14.803Z,29.52
2022-08-14T08:39:21.933Z,29.55
2022-08-14T08:40:20.746Z,29.59
2022-08-14T08:41:16.351Z,29.63
2022-08-14T08:42:16.335Z,29.74
2022-08-14T08:43:16.356Z,29.81
2022-08-14T08:44:31.188Z,29.93
2022-08-14T08:45:17.614Z,30.10
2022-08-14T08:46:18.831Z,30.21
2022-08-14T08:47:17.288Z,30.37
2022-08-14T08:48:20.678Z,30.49
2022-08-14T08:49:17.288Z,30.53
2022-08-14T08:50:22.733Z,30.59
2022-08-14T08:51:16.250Z,30.68
2022-08-14T08:52:25.498Z,30.82
2022-08-14T08:53:17.221Z,30.96
2022-08-14T08:54:18.498Z,31.12
2022-08-14T08:55:16.213Z,31.26
2022-08-14T08:56:30.097Z,31.37
2022-08-14T08:57:18.452Z,31.46
2022-08-14T08:58:20.162Z,31.46
2022-08-14T08:59:17.193Z,31.45
2022-08-14T09:00:25.698Z,31.41
2022-08-14T09:01:17.215Z,31.51
2022-08-14T09:02:16.143Z,31.61
2022-08-14T09:03:16.162Z,31.76
2022-08-14T09:04:17.347Z,31.91
2022-08-14T09:05:16.108Z,32.13
2022-08-14T09:07:00.704Z,32.13
2022-08-14T09:07:17.092Z,32.28
2022-08-14T09:08:31.215Z,32.42
2022-08-14T09:09:17.098Z,32.42
2022-08-14T09:10:17.503Z,32.51
2022-08-14T09:11:19.091Z,32.60
2022-08-14T09:12:16.040Z,32.64
2022-08-14T09:13:16.064Z,32.72
2022-08-14T09:14:16.041Z,32.76
2022-08-14T09:15:16.011Z,32.79
2022-08-14T09:16:19.101Z,32.90
2022-08-14T09:17:15.992Z,33.03
2022-08-14T09:18:15.982Z,33.06
2022-08-14T09:19:15.993Z,33.12
2022-08-14T09:20:19.329Z,33.16
2022-08-14T09:21:16.955Z,33.09
2022-08-14T09:22:36.287Z,32.97
2022-08-14T09:23:16.970Z,32.99
2022-08-14T09:24:28.337Z,33.12
2022-08-14T09:25:16.938Z,33.16
2022-08-14T09:26:21.009Z,33.07
2022-08-14T09:27:22.386Z,33.10
2022-08-14T09:28:16.886Z,33.27
2022-08-14T09:29:15.908Z,33.42
2022-08-14T09:30:31.766Z,33.60
2022-08-14T09:31:18.033Z,33.51
2022-08-14T09:33:09.344Z,33.54
2022-08-14T09:33:22.706Z,33.41
2022-08-14T09:34:27.532Z,33.26
2022-08-14T09:35:16.865Z,33.26
2022-08-14T09:36:15.812Z,33.19
2022-08-14T09:37:15.803Z,33.33
2022-08-14T09:38:25.647Z,33.36
2022-08-14T09:39:22.771Z,33.54
2022-08-14T09:40:21.136Z,33.66
2022-08-14T09:41:16.763Z,33.76
2022-08-14T09:42:21.586Z,33.81
2022-08-14T09:43:19.984Z,33.89
2022-08-14T09:44:20.948Z,33.92
2022-08-14T09:45:15.738Z,33.95
2022-08-14T09:46:16.949Z,34.06
2022-08-14T09:47:16.726Z,34.07
2022-08-14T09:48:15.695Z,34.11
2022-08-14T09:49:16.646Z,34.23
2022-08-14T09:50:15.677Z,34.41
2022-08-14T09:51:15.676Z,34.52
2022-08-14T09:52:33.335Z,34.62
2022-08-14T09:53:18.405Z,34.66
2022-08-14T09:54:22.586Z,34.75
2022-08-14T09:55:16.629Z,34.79
2022-08-14T09:56:24.237Z,34.72
2022-08-14T09:57:16.630Z,34.76
2022-08-14T09:58:19.921Z,34.82
2022-08-14T09:59:16.640Z,34.91
2022-08-14T10:00:30.368Z,34.99
2022-08-14T10:01:16.585Z,34.94
2022-08-14T10:02:15.610Z,34.86
2022-08-14T10:03:15.629Z,34.99
2022-08-14T10:04:33.432Z,35.16
2022-08-14T10:05:16.554Z,35.32
2022-08-14T10:06:15.536Z,34.85
2022-08-14T10:07:15.525Z,34.11
2022-08-14T10:08:15.517Z,33.64
2022-08-14T10:09:16.601Z,33.55
2022-08-14T10:10:23.749Z,33.98
2022-08-14T10:11:16.486Z,34.26
2022-08-14T10:12:18.843Z,34.38
2022-08-14T10:13:16.468Z,34.56
2022-08-14T10:14:19.143Z,34.75
2022-08-14T10:15:16.459Z,34.91
2022-08-14T10:16:25.958Z,35.07
2022-08-14T10:17:16.438Z,35.23
2022-08-14T10:18:18.174Z,35.46
2022-08-14T10:19:15.962Z,35.63
2022-08-14T10:20:41.764Z,35.84
2022-08-14T10:21:16.410Z,35.94
2022-08-14T10:23:12.678Z,36.13
2022-08-14T10:23:17.888Z,36.32
2022-08-14T10:24:17.445Z,36.29
2022-08-14T10:25:15.603Z,36.00
2022-08-14T10:26:23.052Z,36.22
2022-08-14T10:27:16.352Z,35.85
2022-08-14T10:29:03.549Z,36.07
2022-08-14T10:29:19.649Z,36.17
2022-08-14T10:30:22.622Z,36.29
2022-08-14T10:31:16.314Z,36.40
2022-08-14T10:32:17.605Z,36.51
2022-08-14T10:33:15.287Z,36.61
2022-08-14T10:34:15.317Z,36.69
2022-08-14T10:35:15.269Z,36.76
2022-08-14T10:36:26.768Z,36.81
2022-08-14T10:37:16.256Z,36.83
2022-08-14T10:38:15.251Z,36.93
2022-08-14T10:39:15.258Z,36.64
2022-08-14T10:40:36.945Z,36.52
2022-08-14T10:41:16.278Z,36.20
2022-08-14T10:42:18.307Z,35.57
2022-08-14T10:43:16.199Z,35.07
2022-08-14T10:44:20.887Z,34.67
2022-08-14T10:45:16.179Z,34.41
2022-08-14T10:47:38.042Z,34.16
2022-08-14T10:47:40.565Z,34.15
2022-08-14T10:48:24.561Z,34.72
2022-08-14T10:49:16.164Z,34.90
2022-08-14T10:50:15.142Z,34.37
2022-08-14T10:51:15.125Z,33.98
2022-08-14T10:52:15.125Z,33.60
2022-08-14T10:53:15.325Z,33.19
2022-08-14T10:54:26.267Z,32.82
2022-08-14T10:55:16.093Z,32.48
2022-08-14T10:56:22.045Z,32.32
2022-08-14T10:57:16.076Z,32.11
2022-08-14T10:58:17.340Z,31.99
2022-08-14T10:59:15.078Z,31.87
2022-08-14T11:00:15.050Z,31.79
2022-08-14T11:01:16.039Z,31.66
2022-08-14T11:02:15.028Z,31.49
2022-08-14T11:03:26.492Z,31.38
2022-08-14T11:04:16.051Z,31.26
2022-08-14T11:05:15.012Z,31.26
2022-08-14T11:06:14.998Z,31.30
2022-08-14T11:07:16.880Z,31.22
2022-08-14T11:08:15.973Z,31.15
2022-08-14T11:09:17.009Z,31.10
2022-08-14T11:10:14.953Z,31.08
2022-08-14T11:11:14.934Z,31.74
2022-08-14T11:12:34.777Z,31.68
2022-08-14T11:13:15.915Z,31.52
2022-08-14T11:14:17.540Z,31.98
2022-08-14T11:15:15.896Z,32.33
2022-08-14T11:16:14.888Z,32.28
2022-08-14T11:17:14.878Z,31.98
2022-08-14T11:18:20.500Z,31.75
2022-08-14T11:19:15.878Z,31.70
2022-08-14T11:20:16.728Z,31.48
2022-08-14T11:21:14.849Z,31.33
2022-08-14T11:22:15.517Z,31.51
2022-08-14T11:23:15.820Z,31.63
2022-08-14T11:24:54.050Z,31.57
2022-08-14T11:25:15.822Z,31.46
2022-08-14T11:26:16.483Z,31.33
2022-08-14T11:27:14.782Z,31.23
2022-08-14T11:28:19.401Z,31.15
2022-08-14T11:29:15.762Z,31.08
2022-08-14T11:30:51.807Z,30.93
2022-08-14T11:31:15.831Z,30.80
2022-08-14T11:32:14.736Z,30.71
2022-08-14T11:33:16.415Z,30.64
2022-08-14T11:34:29.786Z,30.67
2022-08-14T11:35:15.725Z,30.64
2022-08-14T11:36:18.314Z,30.58
2022-08-14T11:37:20.763Z,30.52
2022-08-14T11:38:16.994Z,30.40
2022-08-14T11:39:14.668Z,30.30
2022-08-14T11:40:14.720Z,30.24
2022-08-14T11:41:17.207Z,30.17
2022-08-14T11:42:56.666Z,30.07
2022-08-14T11:43:15.627Z,29.95
2022-08-14T11:44:17.760Z,29.84
2022-08-14T11:45:16.969Z,29.92
2022-08-14T11:46:17.722Z,29.99
2022-08-14T11:47:15.589Z,30.28
2022-08-14T11:49:02.737Z,30.52
2022-08-14T11:49:18.870Z,30.70
2022-08-14T11:50:15.584Z,30.88
2022-08-14T11:51:16.459Z,31.10
2022-08-14T11:52:14.537Z,31.30
2022-08-14T11:53:14.533Z,31.48
2022-08-14T11:54:14.515Z,31.66
2022-08-14T11:55:15.526Z,31.84
2022-08-14T11:56:14.498Z,31.95
2022-08-14T11:57:14.479Z,31.95
2022-08-14T11:58:23.832Z,31.82
2022-08-14T11:59:15.461Z,31.70
2022-08-14T12:00:14.679Z,31.61
2022-08-14T12:01:15.449Z,31.57
2022-08-14T12:02:36.068Z,31.61
2022-08-14T12:03:17.818Z,31.49
2022-08-14T12:04:31.779Z,31.51
2022-08-14T12:05:16.487Z,31.71
2022-08-14T12:06:27.817Z,31.86
2022-08-14T12:07:15.433Z,31.76
2022-08-14T12:08:14.373Z,31.78
2022-08-14T12:09:15.448Z,31.71
2022-08-14T12:10:25.525Z,31.94
2022-08-14T12:11:15.343Z,32.06
2022-08-14T12:12:14.342Z,32.17
2022-08-14T12:13:14.324Z,32.24
2022-08-14T12:14:30.551Z,32.35
2022-08-14T12:15:15.325Z,32.42
2022-08-14T12:16:20.476Z,32.51
2022-08-14T12:17:15.278Z,32.54
2022-08-14T12:18:19.307Z,32.57
2022-08-14T12:19:14.270Z,32.65
2022-08-14T12:20:14.859Z,32.69
2022-08-14T12:21:15.800Z,32.65
2022-08-14T12:22:29.904Z,32.43
2022-08-14T12:23:15.219Z,32.27
2022-08-14T12:24:31.782Z,32.14
2022-08-14T12:25:15.230Z,32.09
2022-08-14T12:26:39.333Z,32.04
2022-08-14T12:27:16.983Z,32.14
2022-08-14T12:28:27.244Z,32.23
2022-08-14T12:29:15.161Z,32.33
2022-08-14T12:30:14.175Z,32.43
2022-08-14T12:31:15.142Z,32.54
2022-08-14T12:32:15.164Z,32.60
2022-08-14T12:33:14.124Z,32.69
2022-08-14T12:34:14.115Z,32.55
2022-08-14T12:35:15.123Z,32.51
2022-08-14T12:36:17.931Z,32.61
2022-08-14T12:37:15.087Z,32.64
2022-08-14T12:38:17.276Z,32.50
2022-08-14T12:39:15.058Z,32.35
2022-08-14T12:40:14.088Z,32.14
2022-08-14T12:41:20.271Z,31.99
2022-08-14T12:42:34.653Z,31.90
2022-08-14T12:43:15.019Z,31.84
2022-08-14T12:44:14.020Z,31.75
2022-08-14T12:45:17.248Z,31.64
2022-08-14T12:46:26.542Z,31.56
2022-08-14T12:47:15.146Z,31.46
2022-08-14T12:48:21.653Z,31.41
2022-08-14T12:49:15.990Z,31.30
2022-08-14T12:50:13.995Z,31.24
2022-08-14T12:51:13.944Z,31.15
2022-08-14T12:52:17.379Z,31.10